createdAt,value
2023-04-18T00:01:28.812Z,44.58
2023-04-18T00:03:55.911Z,48.25
2023-04-18T00:06:22.456Z,46.50
2023-04-18T00:08:49.185Z,46.45
2023-04-18T00:11:15.756Z,48.83
2023-04-18T00:13:42.285Z,50.65
2023-04-18T00:16:08.935Z,47.13
2023-04-18T00:18:36.805Z,59.30
2023-04-18T00:21:04.347Z,56.47
2023-04-18T00:23:31.188Z,48.83
2023-04-18T00:25:57.740Z,56.90
2023-04-18T00:28:24.196Z,52.72
2023-04-18T00:30:50.923Z,55.40
2023-04-18T00:33:17.728Z,59.33
2023-04-18T00:35:44.321Z,54.13
2023-04-18T00:38:10.854Z,56.58
2023-04-18T00:40:38.247Z,61.63
2023-04-18T00:43:06.862Z,68.93
2023-04-18T00:45:33.296Z,54.97
2023-04-18T00:47:59.787Z,59.97
2023-04-18T00:50:26.440Z,68.18
2023-04-18T00:52:53.853Z,65.65
2023-04-18T00:55:21.416Z,64.22
2023-04-18T00:57:47.956Z,63.22
2023-04-18T01:00:15.106Z,62.80
2023-04-18T01:02:41.634Z,62.40
2023-04-18T01:05:08.730Z,65.82
2023-04-18T01:07:37.992Z,62.92
2023-04-18T01:10:05.101Z,61.30
2023-04-18T01:12:31.674Z,64.78
2023-04-18T01:14:58.808Z,62.03
2023-04-18T01:17:25.283Z,64.65
2023-04-18T01:19:51.739Z,62.50
2023-04-18T01:22:19.826Z,61.33
2023-04-18T01:24:46.419Z,63.47
2023-04-18T01:27:13.837Z,60.88
2023-04-18T01:29:41.076Z,59.08
2023-04-18T01:32:07.641Z,60.28
2023-04-18T01:34:34.127Z,60.75
2023-04-18T01:37:00.582Z,65.72
2023-04-18T01:39:27.206Z,65.95
2023-04-18T01:41:53.713Z,70.65
2023-04-18T01:44:20.408Z,62.95
2023-04-18T01:46:46.956Z,67.25
2023-04-18T01:49:13.663Z,63.63
2023-04-18T01:51:40.905Z,66.13
2023-04-18T01:54:07.425Z,66.35
2023-04-18T01:56:33.976Z,63.20
2023-04-18T01:59:00.421Z,63.80
2023-04-18T02:01:27.107Z,62.00
2023-04-18T02:03:53.981Z,67.20
2023-04-18T02:06:20.703Z,61.08
2023-04-18T02:08:47.278Z,62.58
2023-04-18T02:11:13.743Z,60.20
2023-04-18T02:13:40.221Z,63.58
2023-04-18T02:16:12.407Z,62.83
2023-04-18T02:18:40.096Z,70.55
2023-04-18T02:21:07.198Z,54.33
2023-04-18T02:23:33.687Z,65.60
2023-04-18T02:26:00.285Z,61.83
2023-04-18T02:28:26.676Z,56.85
2023-04-18T02:30:53.158Z,65.00
2023-04-18T02:33:19.594Z,56.63
2023-04-18T02:35:46.335Z,54.70
2023-04-18T02:38:13.776Z,60.13
2023-04-18T02:40:40.225Z,59.28
2023-04-18T02:43:06.665Z,60.85
2023-04-18T02:45:33.413Z,59.92
2023-04-18T02:48:01.273Z,62.22
2023-04-18T02:50:29.009Z,56.30
2023-04-18T02:52:55.877Z,61.60
2023-04-18T02:55:22.529Z,66.45
2023-04-18T02:57:49.171Z,68.72
2023-04-18T03:00:16.076Z,61.83
2023-04-18T03:02:42.626Z,56.00
2023-04-18T03:05:09.372Z,57.58
2023-04-18T03:07:35.952Z,61.78
2023-04-18T03:10:02.454Z,61.35
2023-04-18T03:12:28.887Z,57.30
2023-04-18T03:14:55.420Z,60.10
2023-04-18T03:17:22.076Z,57.35
2023-04-18T03:19:48.610Z,63.70
2023-04-18T03:22:15.839Z,67.38
2023-04-18T03:24:42.372Z,57.70
2023-04-18T03:27:08.839Z,60.33
2023-04-18T03:29:35.496Z,55.15
2023-04-18T03:32:02.032Z,59.33
2023-04-18T03:34:29.331Z,55.55
2023-04-18T03:36:56.035Z,54.22
2023-04-18T03:39:22.523Z,54.72
2023-04-18T03:41:49.778Z,52.63
2023-04-18T03:44:16.576Z,49.50
2023-04-18T03:46:43.183Z,54.22
2023-04-18T03:49:09.804Z,59.80
2023-04-18T03:51:43.727Z,57.83
2023-04-18T03:54:10.155Z,57.15
2023-04-18T03:56:36.740Z,58.75
2023-04-18T03:59:03.170Z,56.03
2023-04-18T04:01:29.730Z,51.97
2023-04-18T04:03:56.258Z,54.22
2023-04-18T04:06:22.803Z,50.95
2023-04-18T04:08:49.238Z,47.70
2023-04-18T04:11:15.791Z,56.13
2023-04-18T04:13:42.181Z,57.15
2023-04-18T04:16:08.726Z,52.85
2023-04-18T04:18:35.423Z,50.45
2023-04-18T04:21:03.624Z,54.13
2023-04-18T04:23:30.127Z,53.90
2023-04-18T04:25:56.570Z,55.38
2023-04-18T04:28:23.425Z,53.28
2023-04-18T04:30:53.798Z,57.28
2023-04-18T04:33:21.630Z,48.25
2023-04-18T04:35:48.182Z,57.47
2023-04-18T04:38:15.397Z,53.72
2023-04-18T04:40:42.582Z,55.80
2023-04-18T04:43:16.361Z,59.88
2023-04-18T04:45:49.582Z,55.10
2023-04-18T04:48:16.321Z,52.90
2023-04-18T04:50:57.912Z,52.45
2023-04-18T04:53:26.286Z,50.30
2023-04-18T04:55:52.762Z,52.53
2023-04-18T04:58:19.567Z,54.25
2023-04-18T05:00:46.195Z,48.88
2023-04-18T05:03:13.122Z,53.22
2023-04-18T05:05:39.728Z,51.25
2023-04-18T05:08:06.522Z,47.72
2023-04-18T05:10:33.113Z,49.45
2023-04-18T05:12:59.621Z,48.22
2023-04-18T05:15:26.062Z,47.30
2023-04-18T05:17:52.564Z,48.22
2023-04-18T05:20:19.133Z,51.95
2023-04-18T05:22:45.684Z,45.20
2023-04-18T05:25:12.635Z,47.70
2023-04-18T05:27:39.456Z,41.45
2023-04-18T05:30:06.778Z,45.33
2023-04-18T05:32:33.249Z,43.22
2023-04-18T05:34:59.877Z,36.38
2023-04-18T05:37:26.343Z,42.25
2023-04-18T05:39:52.861Z,41.05
2023-04-18T05:42:19.316Z,38.92
2023-04-18T05:44:45.821Z,35.08
2023-04-18T05:47:12.279Z,40.25
2023-04-18T05:49:38.763Z,39.05
2023-04-18T05:52:05.613Z,35.13
2023-04-18T05:54:32.109Z,37.50
2023-04-18T05:56:58.624Z,33.33
2023-04-18T05:59:26.697Z,34.47
2023-04-18T06:01:53.569Z,34.88
2023-04-18T06:04:21.287Z,30.05
2023-04-18T06:06:47.949Z,35.00
2023-04-18T06:09:14.432Z,25.80
2023-04-18T06:11:40.862Z,34.08
2023-04-18T06:14:07.770Z,27.00
2023-04-18T06:16:36.543Z,32.42
2023-04-18T06:19:03.699Z,27.70
2023-04-18T06:21:30.205Z,28.60
2023-04-18T06:23:56.727Z,25.63
2023-04-18T06:26:23.244Z,30.10
2023-04-18T06:28:49.665Z,27.83
2023-04-18T06:31:16.349Z,25.95
2023-04-18T06:33:42.814Z,29.40
2023-04-18T06:36:09.482Z,26.08
2023-04-18T06:38:35.937Z,25.38
2023-04-18T06:41:02.361Z,28.85
2023-04-18T06:43:28.938Z,29.83
2023-04-18T06:45:56.613Z,31.35
2023-04-18T06:48:23.445Z,24.58
2023-04-18T06:50:50.332Z,27.77
2023-04-18T06:53:16.804Z,27.02
2023-04-18T06:55:43.335Z,32.28
2023-04-18T06:58:10.143Z,38.88
2023-04-18T07:00:36.931Z,34.15
2023-04-18T07:03:11.062Z,29.67
2023-04-18T07:05:38.017Z,26.45
2023-04-18T07:08:04.585Z,24.10
2023-04-18T07:10:31.422Z,35.28
2023-04-18T07:12:57.997Z,25.55
2023-04-18T07:15:24.487Z,26.23
2023-04-18T07:17:51.159Z,26.35
2023-04-18T07:20:17.783Z,32.03
2023-04-18T07:22:44.337Z,27.42
2023-04-18T07:25:10.915Z,26.58
2023-04-18T07:27:37.631Z,27.20
2023-04-18T07:30:04.698Z,24.33
2023-04-18T07:32:31.644Z,27.77
2023-04-18T07:34:59.200Z,24.08
2023-04-18T07:37:26.194Z,25.17
2023-04-18T07:39:52.826Z,22.38
2023-04-18T07:42:19.370Z,30.70
2023-04-18T07:44:46.879Z,23.80
2023-04-18T07:47:13.383Z,23.80
2023-04-18T07:49:39.853Z,22.58
2023-04-18T07:52:06.426Z,26.50
2023-04-18T07:54:32.973Z,22.52
2023-04-18T07:56:59.647Z,24.23
2023-04-18T07:59:27.053Z,22.45
2023-04-18T08:01:53.713Z,21.05
2023-04-18T08:04:20.472Z,24.60
2023-04-18T08:06:47.081Z,26.40
2023-04-18T08:09:13.996Z,20.85
2023-04-18T08:11:42.186Z,24.60
2023-04-18T08:14:08.789Z,22.38
2023-04-18T08:16:35.867Z,22.50
2023-04-18T08:19:02.296Z,22.55
2023-04-18T08:21:28.764Z,20.65
2023-04-18T08:23:55.521Z,21.65
2023-04-18T08:26:42.163Z,29.45
2023-04-18T08:29:08.679Z,23.00
2023-04-18T08:31:35.269Z,21.42
2023-04-18T08:34:03.136Z,21.13
2023-04-18T08:36:31.577Z,26.15
2023-04-18T08:38:58.179Z,21.38
2023-04-18T08:41:25.913Z,25.27
2023-04-18T08:43:52.405Z,26.13
2023-04-18T08:46:19.659Z,33.40
2023-04-18T08:48:49.305Z,24.00
2023-04-18T08:51:15.836Z,22.67
2023-04-18T08:53:45.089Z,24.45
2023-04-18T08:56:14.609Z,26.77
2023-04-18T08:58:41.166Z,23.13
2023-04-18T09:01:07.685Z,29.38
2023-04-18T09:03:39.963Z,24.58
2023-04-18T09:06:08.347Z,20.83
2023-04-18T09:08:35.519Z,20.65
2023-04-18T09:11:26.207Z,22.55
2023-04-18T09:13:53.208Z,20.60
2023-04-18T09:16:22.400Z,21.88
2023-04-18T09:19:14.009Z,23.23
2023-04-18T09:21:44.428Z,23.88
2023-04-18T09:26:53.742Z,23.08
2023-04-18T09:29:23.691Z,22.42
2023-04-18T09:32:03.456Z,19.80
2023-04-18T09:34:30.372Z,25.63
2023-04-18T09:37:07.780Z,24.17
2023-04-18T09:39:34.352Z,27.85
2023-04-18T09:42:01.433Z,22.30
2023-04-18T09:44:28.172Z,24.10
2023-04-18T09:46:54.873Z,28.10
2023-04-18T09:49:22.028Z,23.50
2023-04-18T09:51:51.356Z,21.92
2023-04-18T09:54:19.614Z,20.50
2023-04-18T09:56:47.314Z,21.58
2023-04-18T09:59:18.650Z,21.23
2023-04-18T10:01:48.529Z,22.60
2023-04-18T10:04:17.204Z,24.05
2023-04-18T10:06:46.391Z,20.88
2023-04-18T10:09:14.540Z,23.17
2023-04-18T10:11:41.973Z,25.02
2023-04-18T10:14:13.268Z,20.88
2023-04-18T10:16:40.783Z,28.55
2023-04-18T10:19:27.279Z,23.75
2023-04-18T10:21:55.560Z,19.65
2023-04-18T10:24:53.420Z,18.33
2023-04-18T10:27:49.187Z,19.85
2023-04-18T10:30:16.708Z,20.45
2023-04-18T10:32:43.508Z,21.73
2023-04-18T10:35:11.140Z,20.48
2023-04-18T10:37:59.447Z,20.25
2023-04-18T10:43:00.867Z,19.45
2023-04-18T10:45:29.767Z,27.10
2023-04-18T10:48:22.700Z,20.65
2023-04-18T10:51:14.123Z,22.80
2023-04-18T10:53:48.048Z,26.33
2023-04-18T10:56:15.760Z,23.40
2023-04-18T10:58:47.837Z,21.17
2023-04-18T11:01:15.740Z,24.25
2023-04-18T11:03:42.378Z,23.90
2023-04-18T11:06:08.906Z,21.25
2023-04-18T11:08:35.770Z,30.38
2023-04-18T11:11:04.219Z,22.90
2023-04-18T11:13:31.714Z,22.35
2023-04-18T11:15:58.170Z,23.58
2023-04-18T11:18:24.701Z,21.98
2023-04-18T11:20:51.713Z,26.35
2023-04-18T11:23:24.871Z,23.40
2023-04-18T11:25:54.315Z,23.67
2023-04-18T11:28:21.963Z,21.33
2023-04-18T11:30:48.585Z,26.88
2023-04-18T11:33:15.334Z,28.10
2023-04-18T11:35:46.407Z,21.63
2023-04-18T11:38:14.992Z,20.48
2023-04-18T11:40:48.670Z,18.55
2023-04-18T11:43:20.851Z,17.85
2023-04-18T11:45:54.263Z,17.73
2023-04-18T11:48:20.883Z,24.30
2023-04-18T11:50:47.414Z,18.65
2023-04-18T11:53:13.828Z,16.90
2023-04-18T11:55:40.521Z,20.80
2023-04-18T11:58:07.115Z,17.67
2023-04-18T12:00:39.267Z,18.30
2023-04-18T12:03:14.405Z,19.55
2023-04-18T12:05:42.224Z,17.52
2023-04-18T12:08:12.092Z,16.77
2023-04-18T12:10:46.483Z,15.82
2023-04-18T12:13:13.169Z,16.88
2023-04-18T12:15:42.220Z,15.80
2023-04-18T12:18:08.992Z,15.77
2023-04-18T12:20:39.982Z,17.40
2023-04-18T12:23:06.667Z,15.70
2023-04-18T12:25:33.563Z,16.27
2023-04-18T12:28:02.830Z,15.80
2023-04-18T12:30:36.835Z,15.83
2023-04-18T12:33:04.908Z,15.60
2023-04-18T12:35:32.348Z,14.70
2023-04-18T12:38:01.084Z,16.00
2023-04-18T12:40:30.055Z,17.05
2023-04-18T12:42:56.683Z,14.90
2023-04-18T12:45:29.570Z,15.10
2023-04-18T12:47:56.181Z,15.32
2023-04-18T12:50:27.245Z,14.43
2023-04-18T12:52:55.727Z,15.73
2023-04-18T12:55:23.072Z,15.20
2023-04-18T12:57:52.151Z,14.55
2023-04-18T13:00:18.671Z,15.07
2023-04-18T13:02:46.172Z,15.38
2023-04-18T13:05:15.845Z,14.60
2023-04-18T13:07:45.096Z,14.32
2023-04-18T13:10:14.879Z,15.10
2023-04-18T13:12:41.660Z,14.07
2023-04-18T13:15:09.645Z,13.65
2023-04-18T13:17:37.341Z,13.98
2023-04-18T13:20:08.832Z,14.93
2023-04-18T13:22:35.760Z,14.55
2023-04-18T13:25:03.117Z,15.43
2023-04-18T13:27:29.735Z,14.35
2023-04-18T13:29:57.216Z,14.25
2023-04-18T13:32:24.376Z,13.45
2023-04-18T13:34:51.164Z,13.75
2023-04-18T13:37:17.655Z,12.95
2023-04-18T13:39:44.454Z,13.65
2023-04-18T13:42:10.936Z,12.45
2023-04-18T13:44:38.281Z,13.38
2023-04-18T13:47:06.222Z,13.40
2023-04-18T13:49:38.845Z,13.70
2023-04-18T13:52:08.074Z,13.70
2023-04-18T13:54:34.919Z,12.77
2023-04-18T13:57:03.253Z,12.73
2023-04-18T13:59:31.960Z,13.25
2023-04-18T14:01:58.927Z,13.27
2023-04-18T14:04:27.042Z,13.93
2023-04-18T14:06:53.881Z,12.55
2023-04-18T14:09:20.583Z,13.25
2023-04-18T14:11:49.538Z,13.75
2023-04-18T14:14:16.069Z,13.38
2023-04-18T14:16:42.623Z,12.85
2023-04-18T14:19:12.634Z,15.40
2023-04-18T14:21:39.590Z,13.00
2023-04-18T14:24:06.773Z,13.23
2023-04-18T14:26:33.255Z,12.93
2023-04-18T14:29:00.431Z,12.93
2023-04-18T14:31:28.178Z,12.95
2023-04-18T14:33:54.645Z,12.40
2023-04-18T14:36:21.242Z,12.98
2023-04-18T14:38:49.073Z,13.88
2023-04-18T14:41:16.467Z,13.02
2023-04-18T14:43:43.148Z,13.70
2023-04-18T14:46:16.645Z,13.73
2023-04-18T14:48:47.248Z,13.38
2023-04-18T14:51:15.887Z,15.27
2023-04-18T14:53:42.462Z,14.05
2023-04-18T14:56:11.848Z,14.68
2023-04-18T14:58:38.592Z,16.00
2023-04-18T15:01:05.427Z,14.60
2023-04-18T15:03:32.340Z,14.02
2023-04-18T15:05:59.375Z,14.23
2023-04-18T15:08:26.008Z,14.70
2023-04-18T15:10:52.619Z,14.85
2023-04-18T15:13:20.908Z,15.20
2023-04-18T15:15:55.054Z,15.57
2023-04-18T15:18:21.859Z,15.48
2023-04-18T15:20:51.799Z,14.57
2023-04-18T15:23:20.918Z,13.57
2023-04-18T15:25:47.648Z,12.95
2023-04-18T15:28:14.187Z,13.63
2023-04-18T15:30:40.799Z,14.98
2023-04-18T15:33:07.692Z,14.63
2023-04-18T15:35:34.238Z,13.70
2023-04-18T15:38:00.760Z,13.80
2023-04-18T15:40:27.326Z,15.85
2023-04-18T15:42:54.513Z,19.33
2023-04-18T15:45:21.839Z,14.82
2023-04-18T15:47:48.455Z,14.05
2023-04-18T15:50:16.361Z,16.23
2023-04-18T15:52:43.324Z,15.32
2023-04-18T15:55:13.404Z,14.40
2023-04-18T16:00:19.698Z,13.77
2023-04-18T16:02:46.721Z,14.25
2023-04-18T16:05:13.652Z,15.20
2023-04-18T16:07:41.229Z,17.02
2023-04-18T16:10:10.328Z,15.52
2023-04-18T16:12:39.550Z,15.13
2023-04-18T16:15:08.071Z,17.00
2023-04-18T16:17:36.701Z,22.77
2023-04-18T16:20:03.749Z,15.85
2023-04-18T16:22:30.578Z,14.57
2023-04-18T16:24:57.460Z,16.98
2023-04-18T16:27:23.923Z,15.57
2023-04-18T16:29:50.541Z,14.50
2023-04-18T16:32:17.259Z,14.02
2023-04-18T16:34:43.749Z,14.73
2023-04-18T16:37:10.219Z,16.92
2023-04-18T16:39:36.954Z,14.63
2023-04-18T16:42:03.796Z,14.07
2023-04-18T16:44:30.762Z,15.85
2023-04-18T16:46:57.324Z,14.43
2023-04-18T16:49:23.893Z,15.07
2023-04-18T16:51:50.993Z,17.70
2023-04-18T16:54:17.866Z,20.10
2023-04-18T16:56:44.825Z,18.67
2023-04-18T16:59:11.441Z,19.42
2023-04-18T17:01:38.145Z,22.73
2023-04-18T17:04:05.161Z,15.82
2023-04-18T17:06:32.564Z,13.95
2023-04-18T17:08:59.021Z,14.40
2023-04-18T17:11:26.403Z,13.07
2023-04-18T17:13:53.012Z,17.50
2023-04-18T17:16:19.500Z,15.63
2023-04-18T17:18:45.944Z,13.25
2023-04-18T17:21:12.579Z,13.85
2023-04-18T17:23:41.517Z,15.32
2023-04-18T17:26:09.014Z,17.00
2023-04-18T17:28:36.220Z,15.25
2023-04-18T17:31:02.875Z,13.75
2023-04-18T17:33:29.365Z,12.85
2023-04-18T17:35:55.994Z,13.63
2023-04-18T17:38:23.258Z,13.98
2023-04-18T17:40:58.032Z,13.27
2023-04-18T17:43:24.681Z,13.80
2023-04-18T17:45:51.461Z,14.57
2023-04-18T17:48:18.011Z,14.68
2023-04-18T17:50:44.584Z,14.70
2023-04-18T17:53:12.418Z,18.02
2023-04-18T17:55:40.290Z,15.07
2023-04-18T17:58:13.553Z,15.88
2023-04-18T18:00:40.082Z,14.70
2023-04-18T18:03:08.913Z,15.95
2023-04-18T18:05:35.570Z,15.80
2023-04-18T18:08:02.144Z,15.52
2023-04-18T18:10:29.117Z,15.80
2023-04-18T18:12:56.267Z,19.95
2023-04-18T18:15:24.212Z,17.05
2023-04-18T18:17:51.832Z,15.68
2023-04-18T18:20:19.148Z,16.35
2023-04-18T18:22:46.266Z,16.10
2023-04-18T18:25:13.072Z,16.83
2023-04-18T18:27:40.672Z,16.38
2023-04-18T18:30:08.091Z,16.58
2023-04-18T18:32:34.748Z,15.95
2023-04-18T18:35:01.773Z,21.55
2023-04-18T18:37:28.221Z,19.10
2023-04-18T18:39:56.155Z,23.52
2023-04-18T18:42:22.755Z,20.98
2023-04-18T18:44:49.300Z,16.45
2023-04-18T18:47:17.339Z,18.98
2023-04-18T18:49:43.863Z,19.10
2023-04-18T18:52:10.372Z,20.50
2023-04-18T18:54:36.866Z,18.10
2023-04-18T18:57:03.343Z,20.00
2023-04-18T18:59:29.927Z,21.08
2023-04-18T19:01:56.554Z,20.98
2023-04-18T19:04:24.830Z,17.85
2023-04-18T19:06:51.434Z,18.98
2023-04-18T19:09:17.863Z,18.33
2023-04-18T19:11:44.384Z,17.63
2023-04-18T19:14:10.848Z,18.15
2023-04-18T19:16:37.538Z,23.58
2023-04-18T19:19:04.272Z,19.90
2023-04-18T19:21:31.412Z,21.50
2023-04-18T19:23:57.880Z,19.90
2023-04-18T19:26:24.380Z,19.30
2023-04-18T19:28:50.823Z,18.77
2023-04-18T19:31:17.405Z,17.52
2023-04-18T19:33:43.924Z,19.00
2023-04-18T19:36:10.366Z,19.42
2023-04-18T19:38:36.890Z,20.95
2023-04-18T19:41:03.423Z,17.27
2023-04-18T19:43:29.864Z,22.23
2023-04-18T19:45:56.368Z,22.48
2023-04-18T19:48:22.881Z,22.13
2023-04-18T19:50:49.658Z,18.75
2023-04-18T19:53:16.348Z,19.88
2023-04-18T19:55:44.849Z,21.65
2023-04-18T19:58:11.391Z,21.38
2023-04-18T20:00:38.229Z,20.45
2023-04-18T20:03:05.118Z,19.73
2023-04-18T20:05:31.899Z,22.17
2023-04-18T20:07:58.400Z,19.27
2023-04-18T20:10:24.996Z,25.90
2023-04-18T20:12:51.796Z,20.88
2023-04-18T20:15:18.565Z,21.45
2023-04-18T20:17:45.142Z,21.90
2023-04-18T20:20:12.310Z,18.80
2023-04-18T20:22:41.752Z,21.35
2023-04-18T20:25:08.972Z,20.48
2023-04-18T20:27:35.759Z,21.85
2023-04-18T20:30:02.485Z,18.27
2023-04-18T20:32:29.127Z,21.65
2023-04-18T20:34:55.692Z,18.73
2023-04-18T20:37:22.307Z,20.58
2023-04-18T20:39:48.994Z,21.02
2023-04-18T20:42:15.901Z,23.08
2023-04-18T20:44:46.728Z,22.45
2023-04-18T20:47:15.526Z,26.17
2023-04-18T20:49:42.710Z,23.33
2023-04-18T20:52:09.645Z,29.02
2023-04-18T20:54:36.371Z,26.95
2023-04-18T20:57:05.497Z,28.70
2023-04-18T20:59:32.295Z,23.02
2023-04-18T21:01:59.008Z,28.30
2023-04-18T21:04:25.891Z,26.05
2023-04-18T21:06:52.513Z,22.65
2023-04-18T21:09:19.295Z,24.58
2023-04-18T21:11:45.966Z,23.95
2023-04-18T21:14:12.840Z,28.70
2023-04-18T21:16:39.849Z,32.03
2023-04-18T21:19:06.911Z,22.00
2023-04-18T21:21:34.387Z,25.95
2023-04-18T21:24:01.870Z,18.60
2023-04-18T21:26:28.679Z,20.48
2023-04-18T21:28:59.939Z,28.17
2023-04-18T21:31:28.700Z,21.60
2023-04-18T21:34:00.481Z,22.65
2023-04-18T21:36:28.018Z,18.85
2023-04-18T21:38:56.024Z,22.23
2023-04-18T21:41:23.762Z,18.02
2023-04-18T21:43:50.795Z,19.15
2023-04-18T21:46:18.272Z,24.17
2023-04-18T21:48:46.691Z,21.95
2023-04-18T21:51:15.026Z,21.95
2023-04-18T21:53:42.409Z,18.13
2023-04-18T21:56:09.012Z,24.85
2023-04-18T21:58:35.619Z,20.17
2023-04-18T22:01:02.447Z,21.40
2023-04-18T22:03:29.514Z,20.23
2023-04-18T22:05:56.713Z,20.73
2023-04-18T22:08:25.634Z,17.60
2023-04-18T22:10:56.219Z,21.65
2023-04-18T22:13:23.076Z,21.77
2023-04-18T22:15:51.452Z,22.77
2023-04-18T22:18:18.895Z,22.35
2023-04-18T22:20:47.340Z,19.85
2023-04-18T22:23:14.119Z,21.65
2023-04-18T22:25:40.832Z,19.08
2023-04-18T22:28:07.617Z,24.88
2023-04-18T22:30:34.452Z,20.42
2023-04-18T22:33:01.181Z,24.15
2023-04-18T22:35:27.919Z,26.75
2023-04-18T22:37:55.899Z,22.40
2023-04-18T22:40:22.584Z,22.45
2023-04-18T22:42:51.876Z,24.00
2023-04-18T22:45:19.403Z,24.20
2023-04-18T22:47:46.739Z,21.13
2023-04-18T22:50:14.146Z,19.85
2023-04-18T22:52:41.217Z,21.60
2023-04-18T22:55:08.549Z,20.10
2023-04-18T22:57:35.282Z,21.83
2023-04-18T23:00:01.876Z,28.63
2023-04-18T23:02:28.636Z,25.80
2023-04-18T23:05:01.378Z,25.08
2023-04-18T23:07:28.544Z,23.48
2023-04-18T23:09:55.067Z,22.58
2023-04-18T23:12:22.016Z,25.88
2023-04-18T23:14:48.766Z,22.23
2023-04-18T23:17:15.314Z,27.05
2023-04-18T23:19:41.802Z,24.77
2023-04-18T23:22:08.294Z,26.10
2023-04-18T23:24:34.760Z,21.67
2023-04-18T23:27:01.792Z,20.33
2023-04-18T23:29:28.418Z,19.60
2023-04-18T23:31:55.103Z,23.20
2023-04-18T23:34:21.740Z,20.23
2023-04-18T23:36:48.320Z,23.23
2023-04-18T23:39:14.988Z,23.88
2023-04-18T23:41:41.450Z,21.98
2023-04-18T23:44:07.945Z,31.65
2023-04-18T23:46:36.373Z,20.13
2023-04-18T23:49:03.478Z,22.02
2023-04-18T23:51:29.946Z,24.73
2023-04-18T23:53:56.469Z,23.98
2023-04-18T23:56:23.214Z,21.73
2023-04-18T23:58:50.545Z,25.73
